NWS Home NWS Lubbock West Texas Mesonet Central Sector Latest Conditions as of 0528 PM, Tue Sep 19, 2017

Latest   N   C   S   Daily Sum   3hrΔ   24hrΔ   Soil Data 
Site Map   24hr Precip   72hr Precip   Google Plot


Station Time of Last Temp Dew Pt. RH Wind Direction Wind Speed Wind Gust Max Wind Max Temp Min Temp Max RH Min RH Altimeter 1HR Rain Today's Rain Solar Rad Red Flag
Abernathy 5ENE  05:20 PM 92 46 21% SW1418 28 mph 214° @ 0330 PM 93 65 89 19 29.80" 0 0.00 373  
Aiken 3WSW  05:20 PM 91 51 25% W1316 29 mph 230° @ 0446 PM 93 60 94 23 29.81" 0 0.00 480  
Amherst 1NE  05:20 PM 91 45 21% SW1119 31 mph 241° @ 0245 PM 91 63 93 20 29.81" 0 0.00 507  
Anton 6SSW  05:20 PM 93 46 20% SW1823 27 mph 215° @ 0320 PM 94 66 88 20 29.80" 0 0.00 500  
Aspermont 3NE  05:20 PM 101 51 19% S1724 29 mph 193° @ 1025 AM 101 71 69 19 29.71" 0 0.00 458  
Bootleg 11WNW  05:20 PM 90 38 16% SW2835 42 mph 235° @ 0421 PM 91 57 86 13 29.84" 0 0.00 389 124
Brownfield 2S  05:20 PM 96 40 15% SW1723 27 mph 230° @ 0455 PM 98 69 74 14 29.81" 0 0.00 490  
Caprock Canyons State Park  05:20 PM 94 51 23% SW1922 34 mph 236° @ 0843 AM 94 70 88 20 29.74" 0 0.00 415  
Childress 2NNE  05:20 PM 96 58 30% S1623 26 mph 190° @ 0405 PM 97 66 90 27 29.70" 0 0.00 445  
Clarendon 2WSW  05:20 PM 94 47 20% SW2026 35 mph 213° @ 0505 PM 96 64 88 16 29.74" 0 0.00 444  
Claude 12SW  05:20 PM 93 33 12% SW1721 38 mph 217° @ 0504 PM 94 69 85 12 29.78" 0 0.00 487 9
Crowell 1E  05:20 PM 100 63 29% SW1720 34 mph 190° @ 0404 PM 102 71 79 21 29.68" 0 0.00 472  
Denver City 7WNW  05:20 PM 94 38 15% SW1823 31 mph 221° @ 0415 PM 95 60 91 14 29.83" 0 0.00 527 5
Dimmitt 2NE  05:20 PM 89 42 20% SW1722 33 mph 229° @ 0330 PM 89 63 90 18 29.82" 0 0.00 441  
Dora NM 2SW  05:20 PM 92 44 19% SW1722 33 mph 240° @ 0210 PM 93 58 89 17 29.85" 0 0.00 467  
Floydada 2NNE  05:20 PM 93 42 17% SW1622 24 mph 208° @ 0510 PM 94 64 88 17 29.79" 0 0.00 473  
Fluvanna 3WNW  05:20 PM 95 52 24% S1926 31 mph 185° @ 0430 PM 95 70 76 24 29.78" 0 0.00 430  
Friona 2NE  05:15 PM 90 39 17% SW1825 37 mph 229° @ 0210 PM 90 61 90 15 29.82" 0 0.00 478  
Gail 2ESE  05:20 PM 94 58 31% SE1215 26 mph 186° @ 0350 PM 98 69 80 25 29.77" 0.01 0.01 438  
Goodlett 3W  05:20 PM 98 56 26% SW1621 26 mph 198° @ 1105 AM 98 68 82 24 29.67" 0 0.00 424  
Graham 5SSW  05:20 PM 94 52 25% S1925 36 mph 197° @ 0405 PM 97 70 74 19 29.78" 0 0.00 264  
Guthrie 10WSW  05:20 PM 98 56 25% S1115 27 mph 198° @ 0405 PM 98 69 85 25 29.71" 0 0.06 504  
Happy 1E  05:20 PM 92 39 15% SW2530 44 mph 215° @ 0358 PM 94 61 89 13 29.81" 0 0.00 507 28
Hart 3N  05:20 PM 90 41 18% SW1824 38 mph 220° @ 0330 PM 91 63 92 13 29.81" 0 0.00 509 55
Haskell 1NW  05:20 PM 97 55 26% S1725 30 mph 206° @ 0130 PM 98 74 70 24 29.70" 0 0.00 443  
Hereford 2NW  05:20 PM 92 35 14% SW2128 38 mph 224° @ 0300 PM 92 63 83 12 29.79" 0 0.00 492 110
Jayton 1SSE  05:20 PM 100 51 20% S1419 30 mph 196° @ 0205 PM 100 70 70 20 29.72" 0 0.00 480  
Knox City 3NW  05:20 PM 98 56 25% S1723 35 mph 172° @ 1210 AM 101 73 68 22 29.69" 0 0.00 184  
Lake Alan Henry 1NW  05:20 PM 98 55 24% S1317 40 mph 180° @ 0355 PM 98 72 70 24 29.74" 0 0.03 489  
Lamesa 2SE  05:20 PM 97 43 16% SW1520 39 mph 200° @ 0520 AM 98 68 84 16 29.80" 0 0.01 419  
Levelland 4S  05:20 PM 92 40 17% SW1623 30 mph 227° @ 0415 PM 95 65 82 14 29.81" 0 0.00 392  
Lubbock 3WNW TTU  05:20 PM 94 43 17% SW1219 28 mph 220° @ 0435 PM 95 73 67 16 29.80" 0 0.00 528  
Memphis 1NE  05:20 PM 97 48 19% S1216 26 mph 199° @ 0435 PM 97 63 97 18 29.70" 0 0.00 376  
Morton 1ENE  05:20 PM 92 44 19% SW1521 35 mph 249° @ 0205 PM 93 64 89 17 29.82" 0 0.00 494  
Muleshoe 2SSW  05:20 PM 91 43 19% SW1522 30 mph 229° @ 1255 PM 92 63 90 16 29.81" 0 0.00 501  
New Home  05:20 PM 97 44 17% SW1722 30 mph 249° @ 0448 PM 98 69 73 15 29.81" 0 0.00 513 2
Northfield 1S  05:20 PM 96 58 29% SW1320 24 mph 199° @ 0305 PM 97 67 86 25 29.70" 0 0.00 413  
O'Donnell 1N  05:20 PM 97 37 13% SW1521 30 mph 234° @ 0250 PM 97 70 66 13 29.79" 0 0.00 473  
Odell 4ENE  05:20 PM 97 62 32% SW1012 27 mph 186° @ 1054 AM 97 71 85 26 29.69" 0 0.00 377  
Olton 6S  05:20 PM 90 45 21% SW1622 40 mph 234° @ 0320 PM 91 64 86 19 29.81" 0 0.00 468  
Paducah 10SW  05:20 PM 97 56 26% S1724 29 mph 240° @ 1230 PM 98 66 90 24 29.71" 0 0.00 383  
Palo Duro Canyon SP Floor  05:20 PM 98 38 13% W611 30 mph 237° @ 0427 PM 99 72 77 13 29.74" 0 0.00 480  
Palo Duro Canyon State Park Rim  05:20 PM 92 38 15% SW1824 37 mph 217° @ 0338 AM 95 68 79 13 29.79" 0 0.00 509 3
Plains 3N  05:10 PM 94 38 14% SW2433 33 mph 248° @ 0505 PM 95 62 92 14 29.83" 0 0.00 470 25
Plainview 1S  05:20 PM 92 45 20% W1422 28 mph 224° @ 0410 PM 93 66 88 20 29.79" 0 0.00 459  
Post 1NE  05:20 PM 97 53 23% S1219 27 mph 217° @ 1250 PM 99 73 66 19 29.75" 0 0.00 242  
Ralls 1SE  05:20 PM 94 47 20% SW1320 28 mph 215° @ 0310 PM 96 66 80 20 29.79" 0 0.00 442  
Reese Center  05:20 PM 93 39 16% SW1824 32 mph 222° @ 0435 PM 94 67 79 15 29.80" 0 0.00 495  
Roaring Springs 3N  05:20 PM 95 58 30% SW1419 28 mph 209° @ 0350 PM 95 68 87 27 29.74" 0 0.00 463  
Seagraves 1SW  05:20 PM 95 41 16% SW1725 27 mph 253° @ 0320 PM 97 65 87 13 29.81" 0 0.00 381  
Seminole 2NNE  05:20 PM 96 39 14% SW1116 28 mph 233° @ 0445 PM 97 64 82 13 29.81" 0 0.00 521  
Seymour 3NW  05:20 PM 100 58 26% S1925 31 mph 192° @ 1120 AM 101 76 74 24 29.69" 0 0.00 248  
Silverton 7ESE  05:20 PM 93 48 23% SW1823 29 mph 221° @ 0455 PM 93 63 87 22 29.78" 0 0.00 433  
Slaton 2NE  05:20 PM 97 38 13% SW1216 28 mph 224° @ 1055 AM 98 68 75 12 29.79" 0 0.00 493  
Snyder 3E  05:20 PM 96 54 25% SW1323 29 mph 200° @ 1250 PM 99 72 79 22 29.77" 0 0.00 294  
Snyder 3SSW  05:20 PM 96 57 27% S812 29 mph 223° @ 1208 PM 99 72 76 24 29.77" 0 0.00 521  
Spur 1W  05:20 PM 94 55 27% S1419 29 mph 199° @ 0255 PM 97 66 86 24 29.73" 0 0.02 484  
Stamford 5ESE  05:20 PM 100 61 28% S1518 30 mph 183° @ 1100 AM 100 74 77 27 29.72" 0 0.00 446  
Sundown 8WSW  05:20 PM 94 42 17% SW2431 35 mph 209° @ 0345 PM 94 60 93 17 29.82" 0 0.00 443  
Tahoka 3NNE  05:20 PM 95 37 13% SW1620 33 mph 223° @ 0401 PM 99 70 69 12 29.79" 0 0.00 420 2
Tatum NM 2SW  05:20 PM 92 41 17% SW1926 35 mph 244° @ 0430 PM 93 58 92 15 29.86" 0 0.00 511 5
Throckmorton 1SW  05:20 PM 97 64 34% S2026 31 mph 177° @ 0505 PM 101 72 89 32 29.71" 0 0.00 469  
Tulia 2ENE  05:20 PM 91 43 19% SW2328 36 mph 224° @ 0500 PM 92 64 97 18 29.80" 0 0.00 443  
Turkey 2WSW  05:20 PM 95 55 26% SW1924 26 mph 232° @ 1035 AM 95 67 91 22 29.72" 0 0.00 443  
Umbarger 3NNE  05:20 PM 92 40 17% SW1924 41 mph 221° @ 0352 PM 93 64 87 13 29.79" 0 0.00 471 20
Vigo Park  05:20 PM 93 43 18% SW2330 37 mph 236° @ 0455 PM 95 64 90 18 29.80" 0 0.00 470  
Weinert 2NNE  05:20 PM 99 61 29% S1925 30 mph 202° @ 0334 PM 101 74 73 27 29.70" 0 0.00 446  
Welch  05:20 PM 97 45 17% SW2429 32 mph 227° @ 0416 PM 99 71 71 15 29.80" 0 0.00 529  
White River Lake 6NW  05:20 PM 96 48 20% SW1527 31 mph 206° @ 0345 PM 98 70 74 19 29.75" 0 0.00 529  
Wolfforth 6SSW  05:20 PM 96 38 13% SW2129 29 mph 234° @ 0420 PM 97 70 72 13 29.80" 0 0.00 440 5

West Texas Mesonet Home   Site Map/Menu  NWS Lubbock Soil Data  Daily Summary Page  24hr Precip  72hr Precip  Google Plot